Time;durP1;ratioP1;P1;durP2;ratioP2;P2;SDS_P1;SDS_P2;PMS_P1;PMS_P2;Temp;Humidity;BMP_temperature;BMP_pressure;BME280_temperature;BME280_humidity;BME280_pressure;Samples;Min_cycle;Max_cycle;Signal;HPM_P1;HPM_P2
2023/07/24 00:00:09;;;;;;;;;;;;;;;27.16;46.52;98031.81;5072092;28;19916;-46
2023/07/24 00:02:35;;;;;;;;;;;;;;;27.03;46.27;98030.94;5072034;28;19963;-46
2023/07/24 00:05:00;;;;;;;;;;;;;;;26.99;46.57;98026.53;5072049;28;20003;-46
2023/07/24 00:07:25;;;;;;;;;;;;;;;27.00;46.78;98011.94;5071974;28;19963;-46
2023/07/24 00:09:51;;;;;;;;;;;;;;;27.02;46.73;98009.72;5072061;28;19983;-46
2023/07/24 00:12:16;;;;;;;;;;;;;;;27.08;46.73;98008.41;5071891;28;19924;-46
2023/07/24 00:14:42;;;;;;;;;;;;;;;27.07;46.63;97980.69;5071944;28;19921;-46
2023/07/24 00:17:07;;;;;;;;;;;;;;;27.08;46.96;97994.94;5071951;28;19921;-46
2023/07/24 00:19:32;;;;;;;;;;;;;;;27.09;46.73;97991.16;5071842;28;19966;-46
2023/07/24 00:21:58;;;;;;;;;;;;;;;27.12;46.89;97997.78;5053858;28;20019;-46
2023/07/24 00:24:23;;;;;;;;;;;;;;;27.10;47.05;97995.41;5071849;28;19916;-45
2023/07/24 00:26:49;;;;;;;;;;;;;;;27.02;47.06;97996.25;5071801;28;19924;-46
2023/07/24 00:29:14;;;;;;;;;;;;;;;26.96;47.51;97995.66;5053820;28;19920;-46
2023/07/24 00:31:40;;;;;;;;;;;;;;;26.95;47.53;98002.16;5051962;28;19970;-46
2023/07/24 00:34:05;;;;;;;;;;;;;;;26.90;47.64;98013.91;5051697;28;19924;-46
2023/07/24 00:36:30;;;;;;;;;;;;;;;26.92;47.75;97991.25;5050420;28;19923;-46
2023/07/24 00:38:56;;;;;;;;;;;;;;;26.93;47.44;97972.06;5050386;28;20432;-46
2023/07/24 00:41:22;;;;;;;;;;;;;;;26.96;47.35;97968.72;5051679;28;20425;-46
2023/07/24 00:43:47;;;;;;;;;;;;;;;26.96;47.67;97974.09;5055500;28;19999;-46
2023/07/24 00:46:13;;;;;;;;;;;;;;;26.93;47.32;97969.38;5055472;28;19917;-46
2023/07/24 00:48:39;;;;;;;;;;;;;;;26.92;47.98;97954.31;5054137;28;19928;-46
2023/07/24 00:51:05;;;;;;;;;;;;;;;26.85;47.54;97949.47;5054101;28;20402;-46
2023/07/24 00:53:30;;;;;;;;;;;;;;;26.85;48.21;97933.31;5053989;28;19917;-46
2023/07/24 00:55:56;;;;;;;;;;;;;;;26.95;48.10;97934.06;5055307;28;19939;-46
2023/07/24 00:58:22;;;;;;;;;;;;;;;27.29;47.41;97924.97;5055223;28;19920;-46
2023/07/24 01:00:47;;;;;;;;;;;;;;;27.32;47.23;97926.22;5053891;28;19917;-46
2023/07/24 01:03:13;;;;;;;;;;;;;;;27.30;47.27;97921.13;5055138;28;20015;-46
2023/07/24 01:05:38;;;;;;;;;;;;;;;27.41;47.06;97922.31;5055099;28;20019;-46
2023/07/24 01:08:04;;;;;;;;;;;;;;;27.43;46.86;97932.78;5055094;28;20018;-46
2023/07/24 01:10:29;;;;;;;;;;;;;;;27.24;47.23;97928.63;5053704;28;20289;-46
2023/07/24 01:12:59;;;;;;;;;;;;;;;27.17;47.58;97943.72;5054925;28;19917;-46
2023/07/24 01:15:32;;;;;;;;;;;;;;;27.08;47.51;97949.16;5054885;28;19952;-46
2023/07/24 01:18:00;;;;;;;;;;;;;;;27.02;48.02;97969.31;5054868;28;20011;-46
2023/07/24 01:20:26;;;;;;;;;;;;;;;26.99;47.76;98008.47;5053513;28;19920;-46
2023/07/24 01:23:15;;;;;;;;;;;;;;;27.26;47.80;98055.72;5054695;28;19971;-46
2023/07/24 01:26:00;;;;;;;;;;;;;;;27.79;46.88;98082.31;5054153;28;20011;-46
2023/07/24 01:28:26;;;;;;;;;;;;;;;28.64;45.31;98086.56;5054941;28;20011;-46
2023/07/24 01:30:52;;;;;;;;;;;;;;;29.08;44.40;98084.13;5053088;28;20028;-46
2023/07/24 01:33:18;;;;;;;;;;;;;;;29.19;44.04;98095.31;5054826;28;19916;-45
2023/07/24 01:35:44;;;;;;;;;;;;;;;29.46;43.48;98115.47;5053245;28;20012;-46
2023/07/24 01:38:10;;;;;;;;;;;;;;;29.59;42.94;98151.38;5054458;28;20019;-46
2023/07/24 01:40:35;;;;;;;;;;;;;;;29.42;43.18;98168.63;5053144;28;19924;-46
2023/07/24 01:43:01;;;;;;;;;;;;;;;29.25;45.27;98208.25;5054492;28;19917;-46
2023/07/24 01:45:26;;;;;;;;;;;;;;;28.87;46.29;98246.28;5053045;28;19924;-45
2023/07/24 01:47:58;;;;;;;;;;;;;;;27.89;51.95;98289.66;5054605;28;19921;-45
2023/07/24 01:50:24;;;;;;;;;;;;;;;26.00;58.90;98290.97;5053127;28;19948;-44
2023/07/24 01:52:50;;;;;;;;;;;;;;;24.81;64.53;98239.41;5054037;28;19972;-45
2023/07/24 01:55:23;;;;;;;;;;;;;;;23.81;68.35;98199.97;5052112;28;19973;-44
2023/07/24 01:57:48;;;;;;;;;;;;;;;23.04;73.38;98113.06;5052885;28;19917;-45
2023/07/24 02:00:14;;;;;;;;;;;;;;;22.79;78.34;98066.13;5054371;28;19928;-44
2023/07/24 02:02:39;;;;;;;;;;;;;;;22.77;81.74;98038.88;5054345;28;19917;-44
2023/07/24 02:05:05;;;;;;;;;;;;;;;22.64;83.52;98010.22;5054002;28;19923;-44
2023/07/24 02:07:30;;;;;;;;;;;;;;;22.41;84.84;98002.06;5052942;28;19916;-44
2023/07/24 02:09:56;;;;;;;;;;;;;;;22.24;86.46;98055.31;5052698;28;19964;-44
2023/07/24 02:12:21;;;;;;;;;;;;;;;22.34;89.79;98084.53;5053831;28;20394;-46
2023/07/24 02:14:51;;;;;;;;;;;;;;;22.54;92.29;98083.41;5053844;28;19917;-45
2023/07/24 02:17:19;;;;;;;;;;;;;;;22.65;93.27;98076.00;5053693;28;20398;-46
2023/07/24 02:19:45;;;;;;;;;;;;;;;22.61;93.09;98066.97;5053769;28;19921;-46
2023/07/24 02:22:10;;;;;;;;;;;;;;;22.64;93.59;98053.81;5053678;28;19987;-46
2023/07/24 02:24:36;;;;;;;;;;;;;;;22.63;93.07;98068.25;5053644;28;19921;-46
2023/07/24 02:27:02;;;;;;;;;;;;;;;22.61;94.20;98072.31;5052289;28;19962;-46
2023/07/24 02:29:27;;;;;;;;;;;;;;;22.60;94.52;98071.53;5052301;28;19963;-46
2023/07/24 02:31:53;;;;;;;;;;;;;;;22.56;94.27;98080.44;5065346;28;20405;-46
2023/07/24 02:34:24;;;;;;;;;;;;;;;22.59;95.54;98077.19;5073354;28;19920;-46
2023/07/24 02:36:49;;;;;;;;;;;;;;;22.67;96.02;98069.25;5056092;28;20402;-45
2023/07/24 02:39:15;;;;;;;;;;;;;;;22.64;94.67;98059.16;5055387;28;19916;-46
2023/07/24 02:41:40;;;;;;;;;;;;;;;22.79;93.98;98058.09;5073273;28;20019;-46
2023/07/24 02:44:06;;;;;;;;;;;;;;;23.11;93.97;98067.16;5055266;28;20372;-46
2023/07/24 02:46:31;;;;;;;;;;;;;;;23.44;92.73;98067.03;5055188;28;19924;-46
2023/07/24 02:48:56;;;;;;;;;;;;;;;23.59;90.31;98073.97;5073173;28;20386;-46
2023/07/24 02:51:22;;;;;;;;;;;;;;;23.81;89.96;98071.34;5055063;28;20393;-47
2023/07/24 02:53:47;;;;;;;;;;;;;;;24.02;87.81;98063.63;5072977;28;19917;-46
2023/07/24 02:56:13;;;;;;;;;;;;;;;24.03;84.60;98054.50;5055022;28;19927;-47
2023/07/24 02:58:38;;;;;;;;;;;;;;;23.95;82.02;98057.13;5073000;28;19920;-47
2023/07/24 03:01:05;;;;;;;;;;;;;;;23.76;82.74;98063.38;5073148;28;20263;-46
2023/07/24 03:03:31;;;;;;;;;;;;;;;23.58;83.29;98093.78;5054892;28;20402;-46
2023/07/24 03:05:56;;;;;;;;;;;;;;;23.42;85.38;98094.13;5072739;28;19924;-47
2023/07/24 03:08:22;;;;;;;;;;;;;;;23.56;87.54;98098.66;5072787;28;19920;-47
2023/07/24 03:10:47;;;;;;;;;;;;;;;23.65;87.72;98094.97;5072763;28;20294;-46
2023/07/24 03:13:13;;;;;;;;;;;;;;;23.70;86.64;98084.16;5072608;28;19971;-46
2023/07/24 03:15:38;;;;;;;;;;;;;;;23.82;84.64;98085.53;5054720;28;19921;-46
2023/07/24 03:18:03;;;;;;;;;;;;;;;23.87;82.49;98085.44;5072855;28;20390;-47
2023/07/24 03:20:29;;;;;;;;;;;;;;;23.87;84.99;98093.47;5072537;28;20382;-47
2023/07/24 03:22:54;;;;;;;;;;;;;;;23.78;86.67;98090.69;5072542;28;20094;-47
2023/07/24 03:25:20;;;;;;;;;;;;;;;23.65;87.22;98086.16;5072473;28;19920;-47
2023/07/24 03:27:45;;;;;;;;;;;;;;;23.62;86.89;98073.34;5054479;28;19923;-47
2023/07/24 03:30:11;;;;;;;;;;;;;;;23.58;83.93;98061.66;5054377;28;19920;-47
2023/07/24 03:32:37;;;;;;;;;;;;;;;23.60;82.39;98041.50;5054114;28;19931;-47
2023/07/24 03:35:05;;;;;;;;;;;;;;;23.61;81.61;98026.25;5053983;28;20491;-47
2023/07/24 03:37:31;;;;;;;;;;;;;;;23.65;80.54;98021.84;5054572;28;19972;-47
2023/07/24 03:39:56;;;;;;;;;;;;;;;23.75;81.05;98023.53;5072374;28;19985;-47
2023/07/24 03:42:26;;;;;;;;;;;;;;;23.83;79.73;97986.09;5054280;28;19917;-47
2023/07/24 03:44:51;;;;;;;;;;;;;;;23.85;79.30;97961.69;5072574;28;20297;-47
2023/07/24 03:47:17;;;;;;;;;;;;;;;23.67;79.54;97964.19;5072247;28;19916;-47
2023/07/24 03:49:42;;;;;;;;;;;;;;;23.52;80.39;97965.34;5054437;28;19921;-47
2023/07/24 03:52:07;;;;;;;;;;;;;;;23.48;83.66;97963.56;5072394;28;19986;-47
2023/07/24 03:54:33;;;;;;;;;;;;;;;23.58;85.53;97963.31;5072072;28;19923;-47
2023/07/24 03:56:58;;;;;;;;;;;;;;;23.80;85.64;97953.75;5054440;28;20007;-47
2023/07/24 03:59:24;;;;;;;;;;;;;;;24.06;85.53;97967.31;5054162;28;20343;-47
2023/07/24 04:01:49;;;;;;;;;;;;;;;24.30;84.33;97985.75;5072131;28;19920;-47
2023/07/24 04:04:15;;;;;;;;;;;;;;;24.29;80.76;97997.59;5072068;28;20298;-47
2023/07/24 04:06:43;;;;;;;;;;;;;;;24.13;79.25;97994.50;5072101;28;19916;-47
2023/07/24 04:09:10;;;;;;;;;;;;;;;24.09;79.73;98036.41;5054344;28;19928;-47
2023/07/24 04:11:38;;;;;;;;;;;;;;;24.12;79.66;98092.09;5072034;28;20279;-47
2023/07/24 04:14:03;;;;;;;;;;;;;;;24.02;81.39;98125.28;5071880;28;19917;-47
2023/07/24 04:16:29;;;;;;;;;;;;;;;24.10;80.60;98086.25;5072168;28;20390;-47
2023/07/24 04:18:54;;;;;;;;;;;;;;;24.20;78.65;98034.28;5076067;28;19925;-47
2023/07/24 04:21:19;;;;;;;;;;;;;;;24.29;77.69;97943.97;5058228;28;19917;-47
2023/07/24 04:23:46;;;;;;;;;;;;;;;23.62;78.66;97918.75;5075994;28;19951;-47
2023/07/24 04:26:12;;;;;;;;;;;;;;;23.10;82.78;97934.41;5075868;28;19948;-47
2023/07/24 04:28:37;;;;;;;;;;;;;;;22.95;84.49;97940.84;5075791;28;19928;-47
2023/07/24 04:31:02;;;;;;;;;;;;;;;22.89;84.78;97958.09;5075620;28;19952;-47
2023/07/24 04:33:28;;;;;;;;;;;;;;;22.80;85.80;97963.38;5057736;28;19974;-47
2023/07/24 04:35:56;;;;;;;;;;;;;;;22.82;87.41;98001.31;5057705;28;19916;-47
2023/07/24 04:38:22;;;;;;;;;;;;;;;22.93;88.49;98005.38;5057764;28;20394;-47
2023/07/24 04:40:47;;;;;;;;;;;;;;;23.03;86.48;97998.28;5075602;28;19994;-47
2023/07/24 04:43:13;;;;;;;;;;;;;;;23.04;85.06;97987.28;5057472;28;20426;-47
2023/07/24 04:45:38;;;;;;;;;;;;;;;23.31;85.26;98004.38;5075516;28;19927;-47
2023/07/24 04:48:04;;;;;;;;;;;;;;;23.62;80.77;98054.59;5040824;28;19916;-47
2023/07/24 04:50:29;;;;;;;;;;;;;;;23.67;81.39;98078.59;5075455;28;20014;-47
2023/07/24 04:52:55;;;;;;;;;;;;;;;23.68;82.12;98093.56;5075298;28;19920;-47
2023/07/24 04:55:21;;;;;;;;;;;;;;;23.71;81.04;98122.47;5057366;28;19923;-47
2023/07/24 04:57:47;;;;;;;;;;;;;;;23.82;78.01;98107.75;5075341;28;19917;-47
2023/07/24 05:00:12;;;;;;;;;;;;;;;24.12;77.19;98105.50;5075200;28;20114;-47
2023/07/24 05:02:38;;;;;;;;;;;;;;;24.15;77.15;98098.72;5075152;28;19927;-47
2023/07/24 05:05:03;;;;;;;;;;;;;;;24.02;77.39;98092.34;5075137;28;19924;-47
2023/07/24 05:07:29;;;;;;;;;;;;;;;23.89;77.58;98054.56;5075121;28;20445;-47
2023/07/24 05:09:54;;;;;;;;;;;;;;;23.89;78.36;97973.38;5075018;28;20275;-47
2023/07/24 05:12:19;;;;;;;;;;;;;;;24.01;77.15;97946.00;5056988;28;19926;-47
2023/07/24 05:14:45;;;;;;;;;;;;;;;23.93;73.95;97944.88;5057023;28;19923;-48
2023/07/24 05:17:13;;;;;;;;;;;;;;;23.72;75.54;97953.38;5056972;28;20378;-48
2023/07/24 05:19:39;;;;;;;;;;;;;;;23.52;79.52;97959.19;5056923;28;19927;-48
2023/07/24 05:22:04;;;;;;;;;;;;;;;23.51;80.54;97925.47;5074785;28;19916;-48
2023/07/24 05:24:30;;;;;;;;;;;;;;;23.68;80.06;97911.41;5074834;28;20008;-48
2023/07/24 05:26:55;;;;;;;;;;;;;;;23.90;77.96;97905.25;5056799;28;19960;-48
2023/07/24 05:29:21;;;;;;;;;;;;;;;24.08;75.28;97890.84;5073542;28;20408;-47
2023/07/24 05:31:47;;;;;;;;;;;;;;;24.28;76.45;97929.72;5074444;28;19924;-47
2023/07/24 05:34:12;;;;;;;;;;;;;;;24.48;75.66;97935.66;5074546;28;20311;-47
2023/07/24 05:36:38;;;;;;;;;;;;;;;24.70;75.47;97948.22;5056507;28;19982;-47
2023/07/24 05:39:03;;;;;;;;;;;;;;;24.69;71.38;97960.88;5074590;28;19916;-47
2023/07/24 05:41:28;;;;;;;;;;;;;;;24.75;70.13;97936.56;5074510;28;19920;-47
2023/07/24 05:43:55;;;;;;;;;;;;;;;25.06;69.68;97948.00;5074426;28;19924;-47
2023/07/24 05:46:23;;;;;;;;;;;;;;;25.31;68.15;97957.22;5074674;28;19921;-47
2023/07/24 05:48:48;;;;;;;;;;;;;;;25.44;66.49;97962.75;5056425;28;19982;-47
2023/07/24 05:51:14;;;;;;;;;;;;;;;25.34;64.99;97963.09;5074294;28;20397;-47
2023/07/24 05:53:39;;;;;;;;;;;;;;;25.21;65.65;97962.91;5074252;28;20297;-47
2023/07/24 05:56:05;;;;;;;;;;;;;;;25.17;64.89;97972.66;5074209;28;19921;-47
2023/07/24 05:58:30;;;;;;;;;;;;;;;25.15;66.46;97984.81;5056214;28;19920;-47
2023/07/24 06:00:56;;;;;;;;;;;;;;;25.14;68.34;98000.13;5056163;28;19920;-47
2023/07/24 06:03:22;;;;;;;;;;;;;;;25.07;68.22;98011.34;5056123;28;19916;-47
2023/07/24 06:05:50;;;;;;;;;;;;;;;24.99;69.65;98016.66;5074062;28;19972;-47
2023/07/24 06:08:16;;;;;;;;;;;;;;;25.01;70.60;98015.28;5074076;28;20244;-47
2023/07/24 06:10:41;;;;;;;;;;;;;;;25.17;69.78;98009.47;5073961;28;19927;-46
2023/07/24 06:13:06;;;;;;;;;;;;;;;25.43;68.24;97996.09;5073813;28;20282;-47
2023/07/24 06:15:32;;;;;;;;;;;;;;;25.96;68.19;98021.09;5073823;28;19927;-47
2023/07/24 06:17:57;;;;;;;;;;;;;;;27.88;67.22;98035.34;5055943;28;19916;-47
2023/07/24 06:20:23;;;;;;;;;;;;;;;31.01;60.16;98050.13;5073722;28;19916;-47
2023/07/24 06:22:48;;;;;;;;;;;;;;;33.15;54.95;98062.84;5073690;28;19921;-47
2023/07/24 06:25:14;;;;;;;;;;;;;;;34.46;51.75;98073.03;5055651;28;19969;-47
2023/07/24 06:27:39;;;;;;;;;;;;;;;33.56;51.47;98080.13;5073665;28;19916;-47
2023/07/24 06:30:05;;;;;;;;;;;;;;;32.25;54.33;98083.00;5073556;28;19924;-47
2023/07/24 06:32:31;;;;;;;;;;;;;;;30.81;55.53;98044.59;5055320;28;19921;-47
2023/07/24 06:34:56;;;;;;;;;;;;;;;29.24;58.52;98047.22;5055577;28;20370;-47
2023/07/24 06:37:21;;;;;;;;;;;;;;;27.63;64.89;98069.44;5055453;28;20453;-47
2023/07/24 06:39:47;;;;;;;;;;;;;;;26.16;71.28;98066.19;5073066;28;20015;-47
2023/07/24 06:42:12;;;;;;;;;;;;;;;26.33;79.48;98049.22;5073311;28;20019;-47
2023/07/24 06:44:38;;;;;;;;;;;;;;;27.38;79.55;98046.94;5055274;28;19923;-47
2023/07/24 06:47:03;;;;;;;;;;;;;;;27.94;77.46;98040.53;5055229;28;20394;-47
2023/07/24 06:49:29;;;;;;;;;;;;;;;27.87;75.44;98054.56;5055239;28;19920;-47
2023/07/24 06:51:54;;;;;;;;;;;;;;;27.22;73.65;98060.16;5072956;28;19970;-47
2023/07/24 06:54:19;;;;;;;;;;;;;;;26.58;75.30;98068.34;5073017;28;19916;-47
2023/07/24 06:56:45;;;;;;;;;;;;;;;25.98;74.11;98067.28;5073007;28;20302;-47
2023/07/24 06:59:10;;;;;;;;;;;;;;;25.52;70.41;98061.38;5072979;28;19917;-47
2023/07/24 07:01:36;;;;;;;;;;;;;;;25.24;71.30;98036.69;5072922;28;19917;-47
2023/07/24 07:04:01;;;;;;;;;;;;;;;25.15;71.00;98044.66;5054858;28;19916;-47
2023/07/24 07:06:27;;;;;;;;;;;;;;;24.88;73.95;98037.66;5072881;28;19916;-47
2023/07/24 07:08:52;;;;;;;;;;;;;;;24.50;77.42;98012.06;5073062;28;19916;-47
2023/07/24 07:11:18;;;;;;;;;;;;;;;24.48;79.13;98022.28;5072778;28;20416;-47
2023/07/24 07:13:43;;;;;;;;;;;;;;;24.54;78.30;98016.81;5054681;28;19916;-47
2023/07/24 07:16:08;;;;;;;;;;;;;;;24.57;79.00;97997.41;5054697;28;20013;-47
2023/07/24 07:18:34;;;;;;;;;;;;;;;24.68;78.71;98009.47;5072688;28;19927;-47
2023/07/24 07:20:59;;;;;;;;;;;;;;;24.96;77.61;97985.88;5072605;28;19916;-47
2023/07/24 07:23:25;;;;;;;;;;;;;;;25.33;77.26;97981.06;5072542;28;19924;-47
2023/07/24 07:25:50;;;;;;;;;;;;;;;26.16;77.88;97971.22;5054538;28;19916;-47
2023/07/24 07:28:16;;;;;;;;;;;;;;;26.78;73.39;97978.78;5072511;28;19920;-47
2023/07/24 07:30:42;;;;;;;;;;;;;;;26.82;73.62;97985.13;5054292;28;20301;-48
2023/07/24 07:33:08;;;;;;;;;;;;;;;26.87;77.16;97979.53;5054459;28;19923;-47
2023/07/24 07:35:34;;;;;;;;;;;;;;;26.87;79.02;97973.38;5054433;28;19966;-47
2023/07/24 07:37:59;;;;;;;;;;;;;;;26.73;80.53;97975.50;5054688;28;19924;-48
2023/07/24 07:40:26;;;;;;;;;;;;;;;26.54;80.19;97960.53;5054360;28;19916;-47
2023/07/24 07:42:55;;;;;;;;;;;;;;;26.31;78.83;97966.13;5072267;28;20300;-47
2023/07/24 07:45:21;;;;;;;;;;;;;;;26.19;80.57;97967.91;5054270;28;19967;-47
2023/07/24 07:47:46;;;;;;;;;;;;;;;26.20;78.51;97989.13;5072299;28;19952;-47
2023/07/24 07:50:12;;;;;;;;;;;;;;;26.15;78.46;97983.91;5072271;28;19999;-47
2023/07/24 07:52:38;;;;;;;;;;;;;;;26.11;79.96;97973.00;5071478;28;19917;-47
2023/07/24 07:55:06;;;;;;;;;;;;;;;26.16;80.36;97982.00;5054175;28;19924;-47
2023/07/24 07:57:38;;;;;;;;;;;;;;;26.30;80.21;97985.31;5054612;28;19917;-47
2023/07/24 08:00:05;;;;;;;;;;;;;;;26.49;80.89;97980.31;5072412;28;20042;-47
2023/07/24 08:02:45;;;;;;;;;;;;;;;26.61;79.03;97984.28;5072216;28;19917;-47
2023/07/24 08:05:16;;;;;;;;;;;;;;;26.53;78.27;97998.53;5053969;28;19965;-47
2023/07/24 08:07:41;;;;;;;;;;;;;;;26.64;75.76;97989.81;5054110;28;20297;-47
2023/07/24 08:10:07;;;;;;;;;;;;;;;26.70;68.08;97991.19;5072057;28;19924;-48
2023/07/24 08:12:32;;;;;;;;;;;;;;;26.43;64.31;97970.06;5071887;28;19986;-47
2023/07/24 08:14:58;;;;;;;;;;;;;;;26.27;63.18;97980.56;5054013;28;19921;-47
2023/07/24 08:17:23;;;;;;;;;;;;;;;26.06;64.27;97999.28;5071971;28;19917;-47
2023/07/24 08:19:49;;;;;;;;;;;;;;;25.85;64.30;98007.94;5054076;28;20011;-47
2023/07/24 08:22:14;;;;;;;;;;;;;;;25.70;66.17;98021.88;5071941;28;20382;-47
2023/07/24 08:24:40;;;;;;;;;;;;;;;25.79;69.04;98005.75;5071837;28;19970;-47
2023/07/24 08:27:05;;;;;;;;;;;;;;;25.97;65.98;98007.34;5071803;28;20344;-47
2023/07/24 08:29:31;;;;;;;;;;;;;;;25.91;65.37;98017.47;5071925;28;20372;-48
2023/07/24 08:31:56;;;;;;;;;;;;;;;25.70;66.90;98022.66;5053566;28;19920;-47
2023/07/24 08:34:21;;;;;;;;;;;;;;;25.51;68.30;98031.06;5071747;28;19917;-47
2023/07/24 08:36:47;;;;;;;;;;;;;;;25.77;69.21;98016.81;5053879;28;19920;-47
2023/07/24 08:39:12;;;;;;;;;;;;;;;25.94;65.20;98037.56;5053754;28;19916;-47
2023/07/24 08:41:38;;;;;;;;;;;;;;;25.70;64.32;97995.00;5053788;28;19917;-47
2023/07/24 08:44:09;;;;;;;;;;;;;;;25.45;66.03;97975.88;5053745;28;19916;-47
2023/07/24 08:46:35;;;;;;;;;;;;;;;25.49;70.41;98024.38;5071731;28;20398;-47
2023/07/24 08:49:01;;;;;;;;;;;;;;;25.30;72.96;98041.59;5071654;28;19917;-47
2023/07/24 08:51:27;;;;;;;;;;;;;;;24.85;77.17;98047.13;5054044;28;19917;-46
2023/07/24 08:53:53;;;;;;;;;;;;;;;24.47;81.89;98009.19;5053587;28;19928;-46
2023/07/24 08:56:19;;;;;;;;;;;;;;;24.20;84.06;98037.75;5053474;28;19917;-47
2023/07/24 08:58:45;;;;;;;;;;;;;;;24.16;86.91;98062.78;5071642;28;19917;-47
2023/07/24 09:01:10;;;;;;;;;;;;;;;24.25;88.41;98093.16;5071765;28;20394;-47
2023/07/24 09:03:36;;;;;;;;;;;;;;;24.10;88.03;98102.31;5073432;28;19967;-47
2023/07/24 09:06:03;;;;;;;;;;;;;;;23.72;88.54;98097.25;5075141;28;20019;-46
2023/07/24 09:08:33;;;;;;;;;;;;;;;23.42;90.95;98118.22;5075110;28;20142;-46
2023/07/24 09:10:59;;;;;;;;;;;;;;;22.99;92.41;98091.69;5057141;28;20014;-45
2023/07/24 09:13:24;;;;;;;;;;;;;;;22.50;93.71;98024.38;5075004;28;19916;-43
2023/07/24 09:15:50;;;;;;;;;;;;;;;22.01;97.17;97980.25;5074998;28;19917;-44
2023/07/24 09:18:16;;;;;;;;;;;;;;;21.64;100.00;97957.88;5074943;28;20003;-44
2023/07/24 09:20:43;;;;;;;;;;;;;;;21.47;100.00;97963.75;5074840;28;19916;-45
2023/07/24 09:23:08;;;;;;;;;;;;;;;21.88;100.00;98013.06;5056905;28;20302;-45
2023/07/24 09:25:35;;;;;;;;;;;;;;;22.69;100.00;97981.47;5056904;28;19920;-45
2023/07/24 09:28:00;;;;;;;;;;;;;;;24.72;100.00;97972.88;5056813;28;20308;-46
2023/07/24 09:30:26;;;;;;;;;;;;;;;26.43;100.00;97970.84;5074764;28;19917;-47
2023/07/24 09:32:52;;;;;;;;;;;;;;;28.11;100.00;97972.13;5074417;28;19924;-47
2023/07/24 09:35:18;;;;;;;;;;;;;;;28.98;100.00;97982.69;5056651;28;20301;-47
2023/07/24 09:37:44;;;;;;;;;;;;;;;28.46;96.98;97970.63;5056651;28;19920;-44
2023/07/24 09:40:10;;;;;;;;;;;;;;;28.49;100.00;97969.97;5056513;28;19925;-44
2023/07/24 09:42:36;;;;;;;;;;;;;;;29.54;100.00;97982.06;5056515;28;19917;-47
2023/07/24 09:45:03;;;;;;;;;;;;;;;30.46;100.00;97983.00;5074387;28;19916;-48
2023/07/24 09:47:28;;;;;;;;;;;;;;;31.89;100.00;97981.84;5074423;28;20471;-47
2023/07/24 09:49:54;;;;;;;;;;;;;;;32.60;93.11;97987.03;5074378;28;19974;-47
2023/07/24 09:52:20;;;;;;;;;;;;;;;33.17;90.97;97993.34;5056301;28;19951;-48
2023/07/24 09:54:54;;;;;;;;;;;;;;;33.21;88.18;97991.44;5074223;28;20401;-47
2023/07/24 09:57:20;;;;;;;;;;;;;;;32.81;82.67;97971.03;5056309;28;19925;-47
2023/07/24 09:59:46;;;;;;;;;;;;;;;32.70;85.62;97972.81;5056451;28;19922;-47
2023/07/24 10:02:12;;;;;;;;;;;;;;;32.73;88.88;97966.66;5074134;28;19917;-47
2023/07/24 10:04:40;;;;;;;;;;;;;;;33.15;88.29;97970.38;5056353;28;20011;-48
2023/07/24 10:07:06;;;;;;;;;;;;;;;33.72;88.33;97968.38;5074024;28;19916;-48
2023/07/24 10:09:32;;;;;;;;;;;;;;;34.76;88.29;97968.59;5056124;28;20012;-47
2023/07/24 10:11:57;;;;;;;;;;;;;;;35.04;82.59;97969.94;5074162;28;20342;-47
2023/07/24 10:14:24;;;;;;;;;;;;;;;35.34;78.13;97964.25;5038592;28;19962;-47
2023/07/24 10:16:55;;;;;;;;;;;;;;;34.81;64.03;97974.47;5073851;28;20410;-47
2023/07/24 10:19:20;;;;;;;;;;;;;;;34.05;63.05;97974.97;5073876;28;19924;-48
2023/07/24 10:21:50;;;;;;;;;;;;;;;34.56;59.51;97973.47;5074041;28;19916;-48
2023/07/24 10:24:16;;;;;;;;;;;;;;;35.41;59.12;97984.16;5073745;28;20394;-47
2023/07/24 10:26:41;;;;;;;;;;;;;;;36.18;59.79;97967.66;5073650;28;19973;-48
2023/07/24 10:29:07;;;;;;;;;;;;;;;36.43;53.64;97961.41;5055565;28;19917;-48
2023/07/24 10:31:32;;;;;;;;;;;;;;;36.97;50.07;97961.38;5055480;28;19920;-48
2023/07/24 10:34:04;;;;;;;;;;;;;;;37.98;56.01;97965.25;5073652;28;19917;-48
2023/07/24 10:36:33;;;;;;;;;;;;;;;39.23;55.22;97959.13;5073416;28;20390;-47
2023/07/24 10:38:58;;;;;;;;;;;;;;;39.74;47.04;97952.59;5073352;28;19920;-48
2023/07/24 10:41:34;;;;;;;;;;;;;;;38.99;47.07;97953.50;5073315;28;19965;-48
2023/07/24 10:44:00;;;;;;;;;;;;;;;38.33;45.88;97957.97;5055374;28;20346;-48
2023/07/24 10:46:34;;;;;;;;;;;;;;;38.84;49.84;97946.56;5073184;28;20382;-48
2023/07/24 10:49:00;;;;;;;;;;;;;;;39.31;46.03;97944.13;5073261;28;19965;-48
2023/07/24 10:51:26;;;;;;;;;;;;;;;39.09;46.96;97944.38;5073153;28;19998;-48
2023/07/24 10:53:53;;;;;;;;;;;;;;;39.23;49.37;97937.16;5073016;28;19916;-48
2023/07/24 10:56:18;;;;;;;;;;;;;;;38.95;41.23;97939.78;5073602;28;19921;-48
2023/07/24 10:58:44;;;;;;;;;;;;;;;37.82;41.36;97940.34;5073258;28;20275;-48
2023/07/24 11:01:10;;;;;;;;;;;;;;;36.92;44.12;97945.34;5072973;28;20411;-48
2023/07/24 11:03:36;;;;;;;;;;;;;;;36.33;49.61;97935.66;5072986;28;20019;-48
2023/07/24 11:06:03;;;;;;;;;;;;;;;36.23;51.06;97941.91;5054936;28;19917;-47
2023/07/24 11:08:28;;;;;;;;;;;;;;;36.82;51.88;97937.97;5073139;28;19939;-48
2023/07/24 11:10:55;;;;;;;;;;;;;;;37.84;49.72;97942.66;5072825;28;20440;-48
2023/07/24 11:13:21;;;;;;;;;;;;;;;38.82;48.73;97936.03;5072642;28;19967;-48
2023/07/24 11:15:47;;;;;;;;;;;;;;;38.98;46.03;97935.50;5054855;28;19938;-48
2023/07/24 11:18:13;;;;;;;;;;;;;;;38.42;48.54;97932.84;5072683;28;19924;-48
2023/07/24 11:20:43;;;;;;;;;;;;;;;38.10;48.93;97925.69;5054697;28;19916;-48
2023/07/24 11:23:09;;;;;;;;;;;;;;;37.54;49.18;97928.31;5054684;28;19916;-48
2023/07/24 11:25:35;;;;;;;;;;;;;;;36.97;46.64;97906.66;5054377;28;20462;-48
2023/07/24 11:28:00;;;;;;;;;;;;;;;36.39;51.68;97914.94;5053904;28;19917;-48
2023/07/24 11:30:26;;;;;;;;;;;;;;;36.01;56.07;97911.03;5072503;28;20309;-48
2023/07/24 11:32:51;;;;;;;;;;;;;;;36.10;58.58;97907.91;5050892;28;20121;-48
2023/07/24 11:35:17;;;;;;;;;;;;;;;37.01;58.82;97901.16;5067918;28;19968;-48
2023/07/24 11:37:43;;;;;;;;;;;;;;;37.31;48.24;97897.97;5052393;28;19917;-48
2023/07/24 11:40:09;;;;;;;;;;;;;;;36.87;51.12;97904.75;5052389;28;19917;-48
2023/07/24 11:42:39;;;;;;;;;;;;;;;36.55;56.17;97897.38;5052328;28;19927;-48
2023/07/24 11:45:05;;;;;;;;;;;;;;;36.79;62.15;97891.09;5050997;28;19967;-48
2023/07/24 11:47:30;;;;;;;;;;;;;;;37.16;61.06;97880.81;5052275;28;19960;-48
2023/07/24 11:49:59;;;;;;;;;;;;;;;37.61;61.25;97878.28;5052237;28;19916;-47
2023/07/24 11:52:25;;;;;;;;;;;;;;;37.81;58.40;97873.03;5052160;28;19924;-48
2023/07/24 11:55:06;;;;;;;;;;;;;;;37.46;59.72;97874.78;5052116;28;19917;-48
2023/07/24 11:57:31;;;;;;;;;;;;;;;37.10;60.39;97874.19;5052214;28;19920;-48
2023/07/24 11:59:59;;;;;;;;;;;;;;;37.20;63.94;97839.75;5052128;28;19917;-48
2023/07/24 12:02:28;;;;;;;;;;;;;;;37.56;57.52;97834.84;5052071;28;20395;-48
2023/07/24 12:04:57;;;;;;;;;;;;;;;37.37;55.58;97838.91;5052099;28;19917;-48
2023/07/24 12:07:28;;;;;;;;;;;;;;;37.02;56.21;97843.31;5052073;28;20467;-48
2023/07/24 12:09:54;;;;;;;;;;;;;;;36.55;56.50;97829.81;5052074;28;20008;-48
2023/07/24 12:12:19;;;;;;;;;;;;;;;35.90;54.02;97831.84;5050681;28;20016;-48
2023/07/24 12:14:44;;;;;;;;;;;;;;;35.39;58.42;97822.00;5051926;28;19963;-48
2023/07/24 12:17:14;;;;;;;;;;;;;;;34.74;54.38;97815.53;5050629;28;19960;-48
2023/07/24 12:19:39;;;;;;;;;;;;;;;34.16;58.96;97830.72;5051867;28;19917;-48
2023/07/24 12:22:05;;;;;;;;;;;;;;;33.70;57.77;97844.72;5051874;28;19917;-47
2023/07/24 12:24:30;;;;;;;;;;;;;;;33.34;58.07;97858.72;5050622;28;20426;-47
2023/07/24 12:26:55;;;;;;;;;;;;;;;33.28;62.07;97843.88;5051861;28;19917;-48
2023/07/24 12:29:21;;;;;;;;;;;;;;;33.35;62.57;97845.91;5051867;28;19924;-47
2023/07/24 12:31:46;;;;;;;;;;;;;;;33.17;61.56;97857.38;5050278;28;19925;-47
2023/07/24 12:34:12;;;;;;;;;;;;;;;32.87;64.03;97853.88;5051775;28;19943;-47
2023/07/24 12:36:37;;;;;;;;;;;;;;;32.51;63.59;97850.63;5051798;28;19917;-47
2023/07/24 12:39:03;;;;;;;;;;;;;;;31.87;65.86;97851.16;5053267;28;19978;-47